createdAt,value
2024-01-05T00:00:55.013Z,8.77
2024-01-05T00:03:40.900Z,9.53
2024-01-05T00:06:14.748Z,9.03
2024-01-05T00:08:48.472Z,8.13
2024-01-05T00:11:23.099Z,9.40
2024-01-05T00:13:56.803Z,7.93
2024-01-05T00:16:30.611Z,8.63
2024-01-05T00:19:04.353Z,8.30
2024-01-05T00:21:38.145Z,8.20
2024-01-05T00:24:12.330Z,8.63
2024-01-05T00:26:46.582Z,8.53
2024-01-05T00:29:20.348Z,8.30
2024-01-05T00:31:54.145Z,8.20
2024-01-05T00:34:27.872Z,8.23
2024-01-05T00:37:01.446Z,8.53
2024-01-05T00:39:35.113Z,8.03
2024-01-05T00:42:10.057Z,8.10
2024-01-05T00:44:43.821Z,8.27
2024-01-05T00:47:17.724Z,7.73
2024-01-05T00:49:51.684Z,7.73
2024-01-05T00:52:25.402Z,7.43
2024-01-05T00:54:58.973Z,7.60
2024-01-05T00:57:33.195Z,9.13
2024-01-05T01:00:10.801Z,7.47
2024-01-05T01:02:44.539Z,7.40
2024-01-05T01:05:19.000Z,7.17
2024-01-05T01:07:52.848Z,6.73
2024-01-05T01:10:26.476Z,7.30
2024-01-05T01:13:00.328Z,7.23
2024-01-05T01:15:34.370Z,6.83
2024-01-05T01:18:09.027Z,7.20
2024-01-05T01:20:42.603Z,6.97
2024-01-05T01:23:15.935Z,7.17
2024-01-05T01:25:49.666Z,6.97
2024-01-05T01:28:23.367Z,7.30
2024-01-05T01:30:56.861Z,7.27
2024-01-05T01:33:30.758Z,6.90
2024-01-05T01:36:04.538Z,7.17
2024-01-05T01:38:37.934Z,6.93
2024-01-05T01:41:12.010Z,7.03
2024-01-05T01:43:53.274Z,6.67
2024-01-05T01:46:28.385Z,7.12
2024-01-05T01:49:02.466Z,6.67
2024-01-05T01:51:37.207Z,7.60
2024-01-05T01:54:11.594Z,6.87
2024-01-05T01:56:47.470Z,6.77
2024-01-05T01:59:21.150Z,6.93
2024-01-05T02:01:55.712Z,7.23
2024-01-05T02:04:31.515Z,6.40
2024-01-05T02:07:06.195Z,6.20
2024-01-05T02:09:41.586Z,6.73
2024-01-05T02:12:15.671Z,6.30
2024-01-05T02:14:49.555Z,6.57
2024-01-05T02:17:36.883Z,6.83
2024-01-05T02:20:12.706Z,6.53
2024-01-05T02:22:52.473Z,6.37
2024-01-05T02:25:26.357Z,6.20
2024-01-05T02:28:00.039Z,5.93
2024-01-05T02:30:34.166Z,6.33
2024-01-05T02:33:09.221Z,7.23
2024-01-05T02:35:42.930Z,7.17
2024-01-05T02:38:16.405Z,8.27
2024-01-05T02:40:50.035Z,7.43
2024-01-05T02:43:23.642Z,7.00
2024-01-05T02:45:57.303Z,6.90
2024-01-05T02:48:31.352Z,6.97
2024-01-05T02:51:05.271Z,7.17
2024-01-05T02:53:38.972Z,6.53
2024-01-05T02:56:20.565Z,6.90
2024-01-05T02:58:54.144Z,7.77
2024-01-05T03:01:28.001Z,7.23
2024-01-05T03:04:02.763Z,7.33
2024-01-05T03:06:36.680Z,6.27
2024-01-05T03:09:10.506Z,6.27
2024-01-05T03:11:43.910Z,6.50
2024-01-05T03:14:17.416Z,6.63
2024-01-05T03:16:51.065Z,6.13
2024-01-05T03:19:25.219Z,6.70
2024-01-05T03:21:59.329Z,6.10
2024-01-05T03:24:33.190Z,5.97
2024-01-05T03:27:07.238Z,5.37
2024-01-05T03:29:41.334Z,5.57
2024-01-05T03:32:14.794Z,6.20
2024-01-05T03:34:48.339Z,4.90
2024-01-05T03:37:21.919Z,5.40
2024-01-05T03:39:56.019Z,5.40
2024-01-05T03:42:29.929Z,5.37
2024-01-05T03:45:03.562Z,5.93
2024-01-05T03:47:37.217Z,5.60
2024-01-05T03:50:13.150Z,5.70
2024-01-05T03:52:46.563Z,6.10
2024-01-05T03:55:20.562Z,6.17
2024-01-05T03:57:54.525Z,5.50
2024-01-05T04:00:28.335Z,6.03
2024-01-05T04:03:02.412Z,5.37
2024-01-05T04:05:37.005Z,5.77
2024-01-05T04:08:11.459Z,6.93
2024-01-05T04:10:45.232Z,6.07
2024-01-05T04:13:19.068Z,6.47
2024-01-05T04:15:52.251Z,5.90
2024-01-05T04:18:26.459Z,7.27
2024-01-05T04:21:00.338Z,6.37
2024-01-05T04:23:33.839Z,5.70
2024-01-05T04:26:08.120Z,7.30
2024-01-05T04:28:41.873Z,7.23
2024-01-05T04:31:15.639Z,7.10
2024-01-05T04:33:49.491Z,6.87
2024-01-05T04:36:23.119Z,6.47
2024-01-05T04:38:56.335Z,6.47
2024-01-05T04:41:30.257Z,6.50
2024-01-05T04:44:04.217Z,6.30
2024-01-05T04:46:37.901Z,6.10
2024-01-05T04:49:11.702Z,5.90
2024-01-05T04:51:45.692Z,6.47
2024-01-05T04:54:18.900Z,7.67
2024-01-05T04:56:52.493Z,6.17
2024-01-05T04:59:27.145Z,6.80
2024-01-05T05:02:01.332Z,6.53
2024-01-05T05:04:35.032Z,6.57
2024-01-05T05:07:09.375Z,6.80
2024-01-05T05:09:43.196Z,7.90
2024-01-05T05:12:16.914Z,7.63
2024-01-05T05:14:50.297Z,6.60
2024-01-05T05:17:23.970Z,6.37
2024-01-05T05:19:57.688Z,6.63
2024-01-05T05:22:31.363Z,6.60
2024-01-05T05:25:07.503Z,6.20
2024-01-05T05:27:41.893Z,6.10
2024-01-05T05:30:17.456Z,6.80
2024-01-05T05:32:51.152Z,6.13
2024-01-05T05:35:24.880Z,7.30
2024-01-05T05:37:58.509Z,7.27
2024-01-05T05:40:32.817Z,6.70
2024-01-05T05:43:06.707Z,7.17
2024-01-05T05:45:40.654Z,5.30
2024-01-05T05:48:15.664Z,5.43
2024-01-05T05:50:49.445Z,6.30
2024-01-05T05:53:23.152Z,6.20
2024-01-05T05:55:56.323Z,5.37
2024-01-05T05:58:29.915Z,5.70
2024-01-05T06:01:03.656Z,5.90
2024-01-05T06:03:37.528Z,5.90
2024-01-05T06:06:20.743Z,5.40
2024-01-05T06:08:54.819Z,5.53
2024-01-05T06:11:28.694Z,6.17
2024-01-05T06:14:05.529Z,5.63
2024-01-05T06:16:38.763Z,6.03
2024-01-05T06:19:12.571Z,5.80
2024-01-05T06:21:47.161Z,6.20
2024-01-05T06:24:20.497Z,7.10
2024-01-05T06:26:53.963Z,6.50
2024-01-05T06:29:27.667Z,6.73
2024-01-05T06:32:01.089Z,6.27
2024-01-05T06:34:34.721Z,5.63
2024-01-05T06:37:08.863Z,5.40
2024-01-05T06:39:42.619Z,5.93
2024-01-05T06:42:16.412Z,5.07
2024-01-05T06:44:50.515Z,4.27
2024-01-05T06:47:24.205Z,4.50
2024-01-05T06:49:58.355Z,4.20
2024-01-05T06:52:32.163Z,4.23
2024-01-05T06:55:06.115Z,3.50
2024-01-05T06:57:39.834Z,3.80
2024-01-05T07:00:15.527Z,3.53
2024-01-05T07:02:49.204Z,3.80
2024-01-05T07:05:22.959Z,4.00
2024-01-05T07:07:56.984Z,4.13
2024-01-05T07:10:30.947Z,3.77
2024-01-05T07:13:08.016Z,3.80
2024-01-05T07:15:41.932Z,4.37
2024-01-05T07:18:15.711Z,4.60
2024-01-05T07:20:49.882Z,5.33
2024-01-05T07:23:23.262Z,4.57
2024-01-05T07:25:56.646Z,4.70
2024-01-05T07:28:30.386Z,4.97
2024-01-05T07:31:07.437Z,4.50
2024-01-05T07:33:41.934Z,4.90
2024-01-05T07:36:15.286Z,4.30
2024-01-05T07:38:48.820Z,4.07
2024-01-05T07:41:22.520Z,3.70
2024-01-05T07:43:56.083Z,3.87
2024-01-05T07:46:29.751Z,3.70
2024-01-05T07:49:03.442Z,4.07
2024-01-05T07:51:39.426Z,3.87
2024-01-05T07:54:14.544Z,3.63
2024-01-05T07:56:48.386Z,3.80
2024-01-05T07:59:22.184Z,3.90
2024-01-05T08:01:57.134Z,3.70
2024-01-05T08:04:30.971Z,4.00
2024-01-05T08:07:04.839Z,3.90
2024-01-05T08:09:38.630Z,4.27
2024-01-05T08:12:15.541Z,3.10
2024-01-05T08:14:50.583Z,3.40
2024-01-05T08:17:24.222Z,3.83
2024-01-05T08:19:57.900Z,3.57
2024-01-05T08:22:31.691Z,3.67
2024-01-05T08:25:05.640Z,3.30
2024-01-05T08:27:39.668Z,3.90
2024-01-05T08:30:17.058Z,3.50
2024-01-05T08:32:56.461Z,3.57
2024-01-05T08:35:31.425Z,3.63
2024-01-05T08:38:05.541Z,3.50
2024-01-05T08:40:39.292Z,2.93
2024-01-05T08:43:12.872Z,2.77
2024-01-05T08:45:47.099Z,2.00
2024-01-05T08:48:20.786Z,2.40
2024-01-05T08:50:54.959Z,2.10
2024-01-05T08:53:28.863Z,2.30
2024-01-05T08:56:02.600Z,1.97
2024-01-05T08:58:35.900Z,1.83
2024-01-05T09:01:09.649Z,1.77
2024-01-05T09:03:44.230Z,1.83
2024-01-05T09:06:18.313Z,2.30
2024-01-05T09:08:52.102Z,1.90
2024-01-05T09:11:25.824Z,1.67
2024-01-05T09:13:59.518Z,1.90
2024-01-05T09:16:32.570Z,1.87
2024-01-05T09:19:06.258Z,2.13
2024-01-05T09:21:40.451Z,2.20
2024-01-05T09:24:14.390Z,2.20
2024-01-05T09:26:48.038Z,2.23
2024-01-05T09:29:22.022Z,3.13
2024-01-05T09:31:55.456Z,2.60
2024-01-05T09:34:29.377Z,2.47
2024-01-05T09:37:03.172Z,3.10
2024-01-05T09:39:36.889Z,2.60
2024-01-05T09:42:12.359Z,2.80
2024-01-05T09:44:47.732Z,3.00
2024-01-05T09:47:22.477Z,3.00
2024-01-05T09:49:56.445Z,3.10
2024-01-05T09:52:30.197Z,3.40
2024-01-05T09:55:03.834Z,2.70
2024-01-05T09:57:38.936Z,5.10
2024-01-05T10:00:19.598Z,3.67
2024-01-05T10:02:59.420Z,2.60
2024-01-05T10:05:34.993Z,2.80
2024-01-05T10:08:12.460Z,2.93
2024-01-05T10:10:57.197Z,2.50
2024-01-05T10:13:30.725Z,2.50
2024-01-05T10:16:04.760Z,2.20
2024-01-05T10:18:38.195Z,2.57
2024-01-05T10:21:14.595Z,2.93
2024-01-05T10:23:48.171Z,2.70
2024-01-05T10:26:22.735Z,2.70
2024-01-05T10:28:56.175Z,2.83
2024-01-05T10:31:29.643Z,2.40
2024-01-05T10:34:03.568Z,2.33
2024-01-05T10:36:37.419Z,2.20
2024-01-05T10:39:11.596Z,2.53
2024-01-05T10:41:48.448Z,2.47
2024-01-05T10:44:22.653Z,2.23
2024-01-05T10:46:56.803Z,2.80
2024-01-05T10:49:32.055Z,2.60
2024-01-05T10:52:06.173Z,2.73
2024-01-05T10:54:39.470Z,2.63
2024-01-05T10:57:14.622Z,2.60
2024-01-05T10:59:52.095Z,2.53
2024-01-05T11:02:27.405Z,2.53
2024-01-05T11:05:09.883Z,2.60
2024-01-05T11:07:45.176Z,2.67
2024-01-05T11:10:30.943Z,2.67
2024-01-05T11:13:26.054Z,2.50
2024-01-05T11:16:18.288Z,2.80
2024-01-05T11:19:19.712Z,3.63
2024-01-05T11:21:57.812Z,3.13
2024-01-05T11:24:31.424Z,4.40
2024-01-05T11:27:31.833Z,4.47
2024-01-05T11:30:06.638Z,4.37
2024-01-05T11:32:44.084Z,3.30
2024-01-05T11:35:45.451Z,4.67
2024-01-05T11:38:43.826Z,4.00
2024-01-05T11:41:24.539Z,2.83
2024-01-05T11:43:58.400Z,3.73
2024-01-05T11:47:02.508Z,4.57
2024-01-05T11:49:43.797Z,3.20
2024-01-05T11:52:20.582Z,2.52
2024-01-05T11:55:13.490Z,2.90
2024-01-05T11:57:49.330Z,2.63
2024-01-05T12:00:23.498Z,4.07
2024-01-05T12:03:04.624Z,3.57
2024-01-05T12:05:38.549Z,3.27
2024-01-05T12:08:13.403Z,4.00
2024-01-05T12:10:47.461Z,5.47
2024-01-05T12:13:26.646Z,3.60
2024-01-05T12:16:02.409Z,4.97
2024-01-05T12:18:45.923Z,5.57
2024-01-05T12:21:21.760Z,4.70
2024-01-05T12:23:57.452Z,7.87
2024-01-05T12:26:32.692Z,6.40
2024-01-05T12:29:06.870Z,4.50
2024-01-05T12:31:43.183Z,4.00
2024-01-05T12:34:18.884Z,4.33
2024-01-05T12:36:52.374Z,6.37
2024-01-05T12:39:27.613Z,4.83
2024-01-05T12:42:01.794Z,5.10
2024-01-05T12:44:36.578Z,4.50
2024-01-05T12:47:10.019Z,3.60
2024-01-05T12:49:45.227Z,3.20
2024-01-05T12:52:18.990Z,3.10
2024-01-05T12:54:53.304Z,3.60
2024-01-05T12:57:27.629Z,3.67
2024-01-05T13:00:07.134Z,3.63
2024-01-05T13:02:42.978Z,5.23
2024-01-05T13:05:35.885Z,3.93
2024-01-05T13:08:10.397Z,4.10
2024-01-05T13:10:44.095Z,3.40
2024-01-05T13:13:19.015Z,3.30
2024-01-05T13:15:52.620Z,3.43
2024-01-05T13:18:26.424Z,3.10
2024-01-05T13:21:00.282Z,2.93
2024-01-05T13:23:34.331Z,3.50
2024-01-05T13:26:08.864Z,3.63
2024-01-05T13:28:42.978Z,3.60
2024-01-05T13:31:17.138Z,3.83
2024-01-05T13:33:50.882Z,3.50
2024-01-05T13:36:24.568Z,3.23
2024-01-05T13:38:57.704Z,3.23
2024-01-05T13:41:31.006Z,3.00
2024-01-05T13:44:04.738Z,3.30
2024-01-05T13:46:38.483Z,3.90
2024-01-05T13:49:12.013Z,5.93
2024-01-05T13:51:45.562Z,5.33
2024-01-05T13:54:19.333Z,4.57
2024-01-05T13:56:52.681Z,4.90
2024-01-05T13:59:26.484Z,5.20
2024-01-05T14:01:59.958Z,5.07
2024-01-05T14:04:33.687Z,5.00
2024-01-05T14:07:07.376Z,4.70
2024-01-05T14:09:40.411Z,4.40
2024-01-05T14:12:14.536Z,4.23
2024-01-05T14:14:48.174Z,4.70
2024-01-05T14:17:23.899Z,5.30
2024-01-05T14:19:57.557Z,6.67
2024-01-05T14:22:31.353Z,6.07
2024-01-05T14:25:05.977Z,6.00
2024-01-05T14:27:39.317Z,6.00
2024-01-05T14:30:16.602Z,6.27
2024-01-05T14:32:50.471Z,6.30
2024-01-05T14:35:23.962Z,7.13
2024-01-05T14:37:57.512Z,7.27
2024-01-05T14:40:31.138Z,6.90
2024-01-05T14:43:04.835Z,7.97
2024-01-05T14:45:38.596Z,9.03
2024-01-05T14:48:12.971Z,8.63
2024-01-05T14:50:47.073Z,8.57
2024-01-05T14:53:20.599Z,7.90
2024-01-05T14:55:54.280Z,9.63
2024-01-05T14:58:27.988Z,9.70
2024-01-05T15:01:01.981Z,7.97
2024-01-05T15:03:38.720Z,8.07
2024-01-05T15:06:13.794Z,7.70
2024-01-05T15:08:47.495Z,8.60
2024-01-05T15:11:23.302Z,7.90
2024-01-05T15:13:56.992Z,7.60
2024-01-05T15:16:31.069Z,7.90
2024-01-05T15:19:07.129Z,8.40
2024-01-05T15:21:41.101Z,9.53
2024-01-05T15:24:14.778Z,10.53
2024-01-05T15:26:49.009Z,13.93
2024-01-05T15:29:22.444Z,15.67
2024-01-05T15:31:57.235Z,18.17
2024-01-05T15:34:31.338Z,12.73
2024-01-05T15:37:05.270Z,9.47
2024-01-05T15:39:39.716Z,9.10
2024-01-05T15:42:14.334Z,10.20
2024-01-05T15:44:48.032Z,10.27
2024-01-05T15:47:22.479Z,11.33
2024-01-05T15:49:56.337Z,12.63
2024-01-05T15:52:30.258Z,12.97
2024-01-05T15:55:03.245Z,13.07
2024-01-05T15:57:37.080Z,12.75
2024-01-05T16:00:13.975Z,12.00
2024-01-05T16:02:47.655Z,12.83
2024-01-05T16:05:21.707Z,17.60
2024-01-05T16:07:55.540Z,17.87
2024-01-05T16:10:29.581Z,17.37
2024-01-05T16:13:03.242Z,16.73
2024-01-05T16:15:37.060Z,16.67
2024-01-05T16:18:11.232Z,16.33
2024-01-05T16:20:46.945Z,15.50
2024-01-05T16:23:20.828Z,15.60
2024-01-05T16:25:54.455Z,16.07
2024-01-05T16:28:28.435Z,16.67
2024-01-05T16:31:02.329Z,18.23
2024-01-05T16:33:37.006Z,17.43
2024-01-05T16:36:13.886Z,16.27
2024-01-05T16:38:49.661Z,16.20
2024-01-05T16:41:25.785Z,15.30
2024-01-05T16:44:00.348Z,15.27
2024-01-05T16:46:34.122Z,16.07
2024-01-05T16:49:08.502Z,16.70
2024-01-05T16:51:42.283Z,16.20
2024-01-05T16:54:15.906Z,16.47
2024-01-05T16:56:54.658Z,15.67
2024-01-05T16:59:29.254Z,16.37
2024-01-05T17:02:02.965Z,15.33
2024-01-05T17:04:36.633Z,18.50
2024-01-05T17:07:10.604Z,18.07
2024-01-05T17:09:44.990Z,18.17
2024-01-05T17:12:20.140Z,18.47
2024-01-05T17:14:53.910Z,19.23
2024-01-05T17:17:27.666Z,20.50
2024-01-05T17:20:16.346Z,21.13
2024-01-05T17:22:55.105Z,24.93
2024-01-05T17:25:29.168Z,27.43
2024-01-05T17:28:02.474Z,30.57
2024-01-05T17:30:36.703Z,29.17
2024-01-05T17:33:11.200Z,28.00
2024-01-05T17:35:45.585Z,23.50
2024-01-05T17:38:19.252Z,22.20
2024-01-05T17:40:53.059Z,23.23
2024-01-05T17:43:26.649Z,23.23
2024-01-05T17:46:04.139Z,21.97
2024-01-05T17:48:37.901Z,23.70
2024-01-05T17:51:11.621Z,22.70
2024-01-05T17:53:45.997Z,24.60
2024-01-05T17:56:27.009Z,21.70
2024-01-05T17:59:00.738Z,23.10
2024-01-05T18:01:34.916Z,23.17
2024-01-05T18:04:08.645Z,22.43
2024-01-05T18:06:42.646Z,22.27
2024-01-05T18:09:16.290Z,23.53
2024-01-05T18:11:49.622Z,24.13
2024-01-05T18:14:23.173Z,23.43
2024-01-05T18:16:56.615Z,24.00
2024-01-05T18:19:30.401Z,24.70
2024-01-05T18:22:04.468Z,24.53
2024-01-05T18:24:38.400Z,24.10
2024-01-05T18:27:12.058Z,24.37
2024-01-05T18:29:45.447Z,24.60
2024-01-05T18:32:19.024Z,27.10
2024-01-05T18:34:53.045Z,25.77
2024-01-05T18:37:26.420Z,26.93
2024-01-05T18:39:59.881Z,27.23
2024-01-05T18:42:33.661Z,27.80
2024-01-05T18:45:09.286Z,29.53
2024-01-05T18:47:42.921Z,29.33
2024-01-05T18:50:16.541Z,27.50
2024-01-05T18:52:50.378Z,26.63
2024-01-05T18:55:23.890Z,27.13
2024-01-05T18:57:57.426Z,29.67
2024-01-05T19:00:31.761Z,28.73
2024-01-05T19:03:05.797Z,29.30
2024-01-05T19:05:39.843Z,30.53
2024-01-05T19:08:17.073Z,30.47
2024-01-05T19:10:51.474Z,29.63
2024-01-05T19:13:25.590Z,32.03
2024-01-05T19:15:59.466Z,32.83
2024-01-05T19:18:34.634Z,32.17
2024-01-05T19:21:09.796Z,35.60
2024-01-05T19:23:43.650Z,33.53
2024-01-05T19:26:21.665Z,35.03
2024-01-05T19:28:55.362Z,34.20
2024-01-05T19:31:29.090Z,34.50
2024-01-05T19:34:03.021Z,33.40
2024-01-05T19:36:38.010Z,34.83
2024-01-05T19:39:12.327Z,35.83
2024-01-05T19:41:51.525Z,35.60
2024-01-05T19:44:25.204Z,37.33
2024-01-05T19:46:58.825Z,37.43
2024-01-05T19:49:35.331Z,41.50
2024-01-05T19:52:10.001Z,40.60
2024-01-05T19:54:43.528Z,38.87
2024-01-05T19:57:17.513Z,42.93
2024-01-05T19:59:51.462Z,43.57
2024-01-05T20:02:25.105Z,43.77
2024-01-05T20:05:00.318Z,46.50
2024-01-05T20:07:34.915Z,46.60
2024-01-05T20:10:10.309Z,49.63
2024-01-05T20:12:47.469Z,55.67
2024-01-05T20:15:21.425Z,52.23
2024-01-05T20:17:55.230Z,54.03
2024-01-05T20:20:28.716Z,50.33
2024-01-05T20:23:03.289Z,49.67
2024-01-05T20:25:36.798Z,49.47
2024-01-05T20:28:11.447Z,50.23
2024-01-05T20:30:45.321Z,51.83
2024-01-05T20:33:19.016Z,55.63
